Time;durP1;ratioP1;P1;durP2;ratioP2;P2;SDS_P1;SDS_P2;PMS_P1;PMS_P2;Temp;Humidity;BMP_temperature;BMP_pressure;BME280_temperature;BME280_humidity;BME280_pressure;Samples;Min_cycle;Max_cycle;Signal;HPM_P1;HPM_P2
2022/07/17 04:02:10;;;;;;;2.95;0.80;;;16.30;72.50;;;;;;5469735;23;88249;-79
2022/07/17 04:04:36;;;;;;;3.78;1.08;;;16.30;72.20;;;;;;4885030;28;87905;-82
2022/07/17 04:07:01;;;;;;;2.08;0.80;;;16.20;73.30;;;;;;4892262;28;88036;-80
2022/07/17 04:09:27;;;;;;;4.68;1.20;;;16.10;74.50;;;;;;4902603;28;86995;-79
2022/07/17 04:11:53;;;;;;;2.53;0.90;;;16.20;75.20;;;;;;4886303;28;86999;-79
2022/07/17 04:14:18;;;;;;;3.15;0.77;;;16.50;74.50;;;;;;4882215;28;86962;-79
2022/07/17 04:16:44;;;;;;;2.85;0.68;;;17.20;73.60;;;;;;4882434;28;87172;-80
2022/07/17 04:19:10;;;;;;;2.80;0.80;;;17.90;71.60;;;;;;4886341;28;87257;-80
2022/07/17 04:21:35;;;;;;;4.55;0.93;;;18.30;70.50;;;;;;4891826;28;86774;-79
2022/07/17 04:24:01;;;;;;;1.83;0.82;;;19.00;67.10;;;;;;4883363;28;87199;-79
2022/07/17 04:26:27;;;;;;;3.75;1.40;;;19.60;64.00;;;;;;4883688;28;87268;-79
2022/07/17 04:28:53;;;;;;;2.42;0.93;;;19.50;63.90;;;;;;4881259;28;87917;-79
2022/07/17 04:31:18;;;;;;;6.10;1.30;;;19.70;64.20;;;;;;4883625;28;87588;-80
2022/07/17 04:33:44;;;;;;;4.75;1.13;;;19.90;63.80;;;;;;4882068;28;87248;-79
2022/07/17 04:36:10;;;;;;;5.82;1.38;;;20.10;63.40;;;;;;4886123;28;88010;-80
2022/07/17 04:38:35;;;;;;;3.67;1.27;;;20.70;60.70;;;;;;4881831;28;86995;-81
2022/07/17 04:41:01;;;;;;;3.10;1.33;;;20.70;61.30;;;;;;4883930;28;86907;-80
2022/07/17 04:43:27;;;;;;;3.88;1.35;;;20.80;61.50;;;;;;4883073;28;87279;-80
2022/07/17 04:45:52;;;;;;;3.35;1.60;;;21.70;59.50;;;;;;4883692;28;86933;-82
2022/07/17 04:48:18;;;;;;;4.03;1.02;;;22.20;56.90;;;;;;4883451;28;87067;-80
2022/07/17 04:50:44;;;;;;;2.70;1.20;;;22.80;56.80;;;;;;4877629;28;89014;-80
2022/07/17 04:53:10;;;;;;;4.35;1.30;;;23.80;55.40;;;;;;4882896;28;87927;-83
2022/07/17 04:55:36;;;;;;;3.03;1.38;;;24.60;53.70;;;;;;4883827;28;87857;-80
2022/07/17 04:58:02;;;;;;;5.35;1.65;;;25.30;51.40;;;;;;4882505;28;87258;-81
2022/07/17 05:00:28;;;;;;;2.60;1.30;;;26.00;50.60;;;;;;4883884;28;86790;-80
2022/07/17 05:02:54;;;;;;;6.32;1.58;;;26.20;49.00;;;;;;4883697;28;87731;-81
2022/07/17 05:05:20;;;;;;;4.53;1.90;;;26.50;48.90;;;;;;4883712;28;86948;-80
2022/07/17 05:07:45;;;;;;;5.45;1.50;;;26.50;47.20;;;;;;4885431;28;86877;-80
2022/07/17 05:10:11;;;;;;;2.60;1.52;;;26.10;48.00;;;;;;4885717;28;86733;-81
2022/07/17 05:12:37;;;;;;;2.42;1.23;;;26.80;48.60;;;;;;4884680;28;87036;-80
2022/07/17 05:15:03;;;;;;;3.25;1.55;;;27.60;47.20;;;;;;4885770;28;87436;-80
2022/07/17 05:17:29;;;;;;;3.05;1.38;;;27.90;45.00;;;;;;4884201;28;87890;-80
2022/07/17 05:19:55;;;;;;;3.10;1.52;;;28.10;44.40;;;;;;4885365;28;87168;-80
2022/07/17 05:22:20;;;;;;;3.28;1.35;;;27.20;47.50;;;;;;4883417;28;87591;-82
2022/07/17 05:24:46;;;;;;;3.38;1.45;;;27.00;47.30;;;;;;4887126;28;86915;-80
2022/07/17 05:27:12;;;;;;;3.97;1.80;;;27.90;45.70;;;;;;4887933;28;86989;-82
2022/07/17 05:29:38;;;;;;;4.07;1.48;;;28.40;45.30;;;;;;4888985;28;86805;-79
2022/07/17 05:32:04;;;;;;;8.10;1.70;;;29.50;44.30;;;;;;4892532;28;86700;-84
2022/07/17 05:34:29;;;;;;;4.40;1.80;;;29.90;42.50;;;;;;4894524;28;87454;-80
2022/07/17 05:36:55;;;;;;;4.22;1.50;;;30.50;41.10;;;;;;4894361;28;86913;-81
2022/07/17 05:39:21;;;;;;;5.28;1.52;;;30.40;41.40;;;;;;4891179;28;86938;-82
2022/07/17 05:41:46;;;;;;;3.20;1.60;;;30.30;40.90;;;;;;4888277;28;88160;-84
2022/07/17 05:44:12;;;;;;;3.28;1.27;;;30.20;41.10;;;;;;4881179;28;88157;-81
2022/07/17 05:46:38;;;;;;;3.72;1.58;;;30.10;41.60;;;;;;4873500;29;87140;-80
2022/07/17 05:49:03;;;;;;;3.45;1.55;;;30.00;41.70;;;;;;4876136;28;87056;-81
2022/07/17 05:51:29;;;;;;;3.88;1.95;;;31.10;41.30;;;;;;4893144;28;87578;-81
2022/07/17 05:53:55;;;;;;;2.00;1.48;;;31.10;40.10;;;;;;4891113;28;88149;-82
2022/07/17 05:56:20;;;;;;;4.03;1.55;;;30.20;41.10;;;;;;4891276;28;86982;-81
2022/07/17 05:58:46;;;;;;;3.22;1.63;;;29.60;41.90;;;;;;4886275;28;86109;-83
2022/07/17 06:01:12;;;;;;;4.28;2.03;;;29.80;42.10;;;;;;4882477;28;86936;-81
2022/07/17 06:03:37;;;;;;;6.05;2.22;;;30.60;40.60;;;;;;4889570;28;86957;-83
2022/07/17 06:06:03;;;;;;;5.55;2.10;;;30.90;39.80;;;;;;4890300;28;87928;-83
2022/07/17 06:08:29;;;;;;;4.57;2.20;;;31.50;38.80;;;;;;4891228;28;86911;-83
2022/07/17 06:10:55;;;;;;;5.10;2.50;;;31.20;39.50;;;;;;4890511;28;87425;-82
2022/07/17 06:13:20;;;;;;;4.32;1.55;;;31.20;40.30;;;;;;4888589;28;86859;-83
2022/07/17 06:15:46;;;;;;;3.92;1.92;;;31.20;40.30;;;;;;4891057;28;86995;-82
2022/07/17 06:18:12;;;;;;;4.35;1.73;;;31.90;39.20;;;;;;4890541;28;87214;-82
2022/07/17 06:20:37;;;;;;;5.05;2.25;;;30.60;40.80;;;;;;4890646;28;87029;-84
2022/07/17 06:23:03;;;;;;;3.45;1.77;;;31.10;39.90;;;;;;4891030;28;86596;-81
2022/07/17 06:25:29;;;;;;;3.30;1.88;;;33.00;38.30;;;;;;4888776;28;86929;-82
2022/07/17 06:27:54;;;;;;;4.00;2.20;;;34.60;36.70;;;;;;4886086;28;86876;-82
2022/07/17 06:30:20;;;;;;;2.72;1.63;;;36.00;35.10;;;;;;4890000;28;87986;-83
2022/07/17 06:32:46;;;;;;;3.35;1.77;;;37.30;34.20;;;;;;4890434;28;88379;-83
2022/07/17 06:35:12;;;;;;;4.82;2.25;;;38.20;33.10;;;;;;4889684;28;86894;-82
2022/07/17 06:37:38;;;;;;;3.88;1.98;;;38.20;33.10;;;;;;4889742;28;86959;-82
2022/07/17 06:40:05;;;;;;;2.72;1.60;;;37.70;33.40;;;;;;4890270;28;88152;-84
2022/07/17 06:42:31;;;;;;;4.05;2.17;;;36.80;34.00;;;;;;4882378;28;87159;-82
2022/07/17 06:44:56;;;;;;;4.75;1.58;;;36.50;33.90;;;;;;4889822;28;86948;-83
2022/07/17 06:47:22;;;;;;;3.95;2.47;;;37.00;33.90;;;;;;4890850;28;85940;-83
2022/07/17 06:49:48;;;;;;;4.40;2.00;;;37.00;33.30;;;;;;4891790;28;88049;-83
2022/07/17 06:52:14;;;;;;;2.70;2.00;;;37.90;32.50;;;;;;4876566;28;87186;-82
2022/07/17 06:54:39;;;;;;;3.42;2.00;;;38.40;33.00;;;;;;4884987;28;87875;-82
2022/07/17 06:57:05;;;;;;;4.50;1.95;;;36.00;34.40;;;;;;4890108;28;87388;-81
2022/07/17 06:59:31;;;;;;;3.15;2.00;;;35.40;34.70;;;;;;4892512;28;87250;-84
2022/07/17 07:01:56;;;;;;;2.85;1.60;;;36.70;33.20;;;;;;4889086;28;87861;-84
2022/07/17 07:04:23;;;;;;;3.55;1.90;;;38.10;32.10;;;;;;4889698;28;86905;-84
2022/07/17 07:06:49;;;;;;;2.85;1.92;;;37.70;32.10;;;;;;4889794;28;87012;-83
2022/07/17 07:09:15;;;;;;;3.78;1.75;;;38.50;32.20;;;;;;4882586;28;87535;-83
2022/07/17 07:11:41;;;;;;;3.95;1.90;;;40.10;32.10;;;;;;4900137;28;88879;-84
2022/07/17 07:14:07;;;;;;;3.25;1.73;;;40.70;31.20;;;;;;4886381;28;87422;-82
2022/07/17 07:16:34;;;;;;;4.10;2.75;;;42.00;31.80;;;;;;4872308;28;86955;-82
2022/07/17 07:18:59;;;;;;;3.58;2.25;;;42.60;31.40;;;;;;4869618;29;89201;-84
2022/07/17 07:21:26;;;;;;;2.80;1.67;;;43.20;31.10;;;;;;4886707;28;88243;-83
2022/07/17 07:23:53;;;;;;;2.40;2.13;;;44.20;29.70;;;;;;4886866;28;87018;-79
2022/07/17 07:26:18;;;;;;;3.20;2.90;;;44.30;29.60;;;;;;4886406;28;86835;-80
2022/07/17 07:28:44;;;;;;;4.15;2.45;;;44.40;30.00;;;;;;4885840;28;87733;-81
2022/07/17 07:31:10;;;;;;;7.32;1.98;;;44.50;30.20;;;;;;4867475;29;88644;-80
2022/07/17 07:33:37;;;;;;;4.25;2.28;;;44.00;29.60;;;;;;4874226;28;86885;-80
2022/07/17 07:36:03;;;;;;;3.95;2.60;;;44.20;30.20;;;;;;4887235;28;85862;-81
2022/07/17 07:38:29;;;;;;;5.38;2.17;;;45.10;29.40;;;;;;4889520;28;89803;-81
2022/07/17 07:40:55;;;;;;;3.63;3.17;;;45.10;28.80;;;;;;4890557;28;87409;-83
2022/07/17 07:43:21;;;;;;;4.03;2.83;;;45.50;29.20;;;;;;4889849;28;87957;-80
2022/07/17 07:45:47;;;;;;;4.50;2.65;;;45.70;29.00;;;;;;4890260;28;86580;-84
2022/07/17 07:48:13;;;;;;;3.63;3.25;;;46.30;28.80;;;;;;4888873;28;86945;-84
2022/07/17 07:50:38;;;;;;;3.15;2.85;;;46.70;28.50;;;;;;4884618;28;87042;-84
2022/07/17 07:53:05;;;;;;;5.30;2.58;;;47.00;28.40;;;;;;4888194;28;87033;-84
2022/07/17 07:55:30;;;;;;;3.38;2.58;;;47.20;27.70;;;;;;4884381;28;86712;-81
2022/07/17 07:58:11;;;;;;;3.97;3.28;;;46.90;27.80;;;;;;4888399;28;87110;-82
2022/07/17 08:00:38;;;;;;;4.00;3.58;;;47.50;27.50;;;;;;4887392;28;87091;-86
2022/07/17 08:03:04;;;;;;;4.32;3.92;;;48.00;27.40;;;;;;4886371;28;86881;-83
2022/07/17 08:05:30;;;;;;;3.40;2.97;;;47.40;27.70;;;;;;4886449;28;86720;-83
2022/07/17 08:07:56;;;;;;;4.32;3.28;;;47.90;27.50;;;;;;4886077;28;89083;-84
2022/07/17 08:10:22;;;;;;;3.47;2.72;;;47.20;29.00;;;;;;4889149;28;87401;-83
2022/07/17 08:12:48;;;;;;;3.60;3.30;;;47.40;28.50;;;;;;4887089;28;87491;-81
2022/07/17 08:15:16;;;;;;;5.45;3.30;;;47.00;28.00;;;;;;4887709;28;87098;-81
2022/07/17 08:17:42;;;;;;;;;;;47.90;28.30;;;;;;4887776;28;87773;-81
2022/07/17 08:20:08;;;;;;;4.57;4.15;;;48.20;28.50;;;;;;4888773;28;86969;-85
2022/07/17 08:22:34;;;;;;;5.00;4.32;;;47.40;28.20;;;;;;4888433;28;86962;-81
2022/07/17 08:24:59;;;;;;;3.97;3.28;;;46.00;28.80;;;;;;4887176;28;85901;-82
2022/07/17 08:27:25;;;;;;;4.22;3.83;;;45.60;29.40;;;;;;4886194;28;87572;-81
2022/07/17 08:29:51;;;;;;;6.55;4.63;;;47.60;28.30;;;;;;4886923;28;86885;-81
2022/07/17 08:32:16;;;;;;;4.47;4.10;;;47.60;27.50;;;;;;4886270;28;87987;-81
2022/07/17 08:34:42;;;;;;;7.22;3.97;;;47.50;27.80;;;;;;4887314;28;87254;-84
2022/07/17 08:37:08;;;;;;;4.65;4.25;;;48.80;27.30;;;;;;4886849;28;88173;-82
2022/07/17 08:39:33;;;;;;;6.03;5.25;;;49.60;26.60;;;;;;4887205;28;87288;-82
2022/07/17 08:42:02;;;;;;;5.32;4.45;;;49.80;27.20;;;;;;4886334;28;86967;-85
2022/07/17 08:44:28;;;;;;;5.45;4.90;;;49.50;26.50;;;;;;4886822;28;87059;-82
2022/07/17 08:46:54;;;;;;;4.72;4.30;;;47.40;26.60;;;;;;4886685;28;87508;-81
2022/07/17 08:49:22;;;;;;;6.88;4.53;;;47.10;26.90;;;;;;4885868;28;87296;-83
2022/07/17 08:51:48;;;;;;;7.88;6.20;;;47.90;27.80;;;;;;4886842;28;87335;-81
2022/07/17 08:54:14;;;;;;;5.38;4.85;;;49.30;26.40;;;;;;4886743;28;86487;-82
2022/07/17 08:56:40;;;;;;;6.65;5.63;;;48.90;26.70;;;;;;4886864;28;88178;-82
2022/07/17 08:59:06;;;;;;;7.25;5.45;;;50.40;26.30;;;;;;4886673;28;87960;-81
2022/07/17 09:01:32;;;;;;;6.07;5.55;;;51.50;26.10;;;;;;4886039;28;87358;-84
2022/07/17 09:04:05;;;;;;;6.10;4.93;;;49.90;25.90;;;;;;4886366;28;86680;-82
2022/07/17 09:06:32;;;;;;;5.60;5.07;;;49.10;26.30;;;;;;4886272;28;88852;-82
2022/07/17 09:09:08;;;;;;;4.88;4.47;;;48.50;27.20;;;;;;4885688;28;86916;-84
2022/07/17 09:11:52;;;;;;;6.57;5.97;;;49.40;26.70;;;;;;4887486;28;86733;-81
2022/07/17 09:14:19;;;;;;;6.22;5.72;;;50.40;26.60;;;;;;4886003;28;86111;-82
2022/07/17 09:17:00;;;;;;;;;;;52.20;25.70;;;;;;4886347;28;87611;-82
2022/07/17 09:19:31;;;;;;;6.63;5.80;;;52.70;26.00;;;;;;4887502;28;86769;-82
2022/07/17 09:22:14;;;;;;;8.25;7.60;;;53.90;25.30;;;;;;4900569;28;87801;-82
2022/07/17 09:24:57;;;;;;;7.25;6.55;;;53.70;25.20;;;;;;4905285;28;86485;-80
2022/07/17 09:27:33;;;;;;;7.97;6.53;;;52.70;24.50;;;;;;4904961;28;87305;-80
2022/07/17 09:30:11;;;;;;;7.10;6.40;;;52.30;25.90;;;;;;4906196;28;87267;-80
2022/07/17 09:32:41;;;;;;;8.38;6.28;;;52.00;25.40;;;;;;4904119;28;86711;-81
2022/07/17 09:35:10;;;;;;;9.30;8.35;;;50.70;26.60;;;;;;4901444;28;86961;-81
2022/07/17 09:37:37;;;;;;;6.35;5.45;;;49.70;26.10;;;;;;4888854;28;87535;-84
2022/07/17 09:40:11;;;;;;;8.05;7.28;;;50.00;26.40;;;;;;4889903;28;86667;-83
2022/07/17 09:42:36;;;;;;;9.23;6.50;;;49.40;26.30;;;;;;4889458;28;86907;-83
2022/07/17 09:45:06;;;;;;;6.72;5.90;;;47.70;27.30;;;;;;4889944;28;87371;-83
2022/07/17 09:47:35;;;;;;;6.68;6.07;;;48.60;27.10;;;;;;4871439;28;90714;-82
2022/07/17 09:50:03;;;;;;;7.93;6.65;;;50.50;26.50;;;;;;4871014;28;87087;-82
2022/07/17 09:52:31;;;;;;;7.40;6.70;;;52.30;25.80;;;;;;4884262;28;86938;-81
2022/07/17 09:54:58;;;;;;;6.68;6.10;;;51.80;26.30;;;;;;4888632;28;86989;-83
2022/07/17 09:57:32;;;;;;;8.20;5.65;;;51.70;26.20;;;;;;4888647;28;87165;-82
2022/07/17 10:00:16;;;;;;;6.35;5.80;;;51.40;26.40;;;;;;4885576;28;87074;-81
2022/07/17 10:02:43;;;;;;;8.23;7.25;;;49.00;27.20;;;;;;4888938;28;87434;-82
2022/07/17 10:05:17;;;;;;;6.47;5.28;;;48.00;26.80;;;;;;4887454;28;86096;-81
2022/07/17 10:07:45;;;;;;;6.03;5.38;;;48.00;27.10;;;;;;4888334;28;86992;-81
2022/07/17 10:10:13;;;;;;;7.18;6.57;;;48.70;27.40;;;;;;4890593;28;88037;-82
2022/07/17 10:12:40;;;;;;;8.43;7.25;;;48.70;26.70;;;;;;4883757;28;87906;-81
2022/07/17 10:15:07;;;;;;;5.18;4.68;;;46.20;27.50;;;;;;4887099;28;87038;-81
2022/07/17 10:17:33;;;;;;;5.97;5.47;;;45.50;28.20;;;;;;4887177;28;87517;-83
2022/07/17 10:19:59;;;;;;;7.07;4.47;;;44.70;28.70;;;;;;4884727;28;87232;-80
2022/07/17 10:22:26;;;;;;;4.60;4.20;;;43.30;29.40;;;;;;4885517;28;87227;-80
2022/07/17 10:24:54;;;;;;;4.47;3.88;;;40.90;30.50;;;;;;4883525;28;87080;-80
2022/07/17 10:27:28;;;;;;;3.25;2.67;;;37.80;33.20;;;;;;4883949;28;88309;-79
2022/07/17 10:30:08;;;;;;;3.75;2.58;;;36.10;36.30;;;;;;4883952;28;87376;-82
2022/07/17 10:32:35;;;;;;;5.40;2.63;;;34.40;38.10;;;;;;4880360;28;86791;-80
2022/07/17 10:35:08;;;;;;;2.90;2.47;;;33.80;40.20;;;;;;4885703;28;87009;-82
2022/07/17 10:37:40;;;;;;;3.55;1.90;;;32.60;39.90;;;;;;4883680;28;87745;-81
2022/07/17 10:40:16;;;;;;;3.60;2.58;;;32.40;40.90;;;;;;4887504;28;87296;-80
2022/07/17 10:43:01;;;;;;;2.85;1.77;;;32.20;42.30;;;;;;4887987;28;87000;-80
2022/07/17 10:45:32;;;;;;;3.60;2.03;;;32.20;40.70;;;;;;4887037;28;86960;-80
2022/07/17 10:48:01;;;;;;;2.80;1.58;;;32.00;40.40;;;;;;4886059;28;87885;-80
2022/07/17 10:50:35;;;;;;;3.40;1.13;;;31.40;42.00;;;;;;4885746;28;87220;-80
2022/07/17 10:53:05;;;;;;;5.07;1.48;;;31.70;40.50;;;;;;4887254;28;86961;-80
2022/07/17 10:55:32;;;;;;;3.08;2.13;;;31.80;40.20;;;;;;4888981;28;86144;-80
2022/07/17 10:57:58;;;;;;;2.75;1.25;;;31.80;40.90;;;;;;4884354;28;87259;-79
2022/07/17 11:00:24;;;;;;;3.80;1.63;;;32.10;40.50;;;;;;4887813;28;87488;-79
2022/07/17 11:02:50;;;;;;;2.38;1.38;;;32.00;40.80;;;;;;4887314;28;87340;-80
2022/07/17 11:05:17;;;;;;;6.32;1.40;;;32.00;40.60;;;;;;4887408;28;87025;-80
2022/07/17 11:07:58;;;;;;;6.57;1.58;;;31.30;42.80;;;;;;4885374;28;87327;-80
2022/07/17 11:10:25;;;;;;;2.50;1.48;;;31.30;42.50;;;;;;4883231;28;87926;-80
2022/07/17 11:12:53;;;;;;;2.83;1.10;;;31.00;42.90;;;;;;4884436;28;86930;-80
2022/07/17 11:15:19;;;;;;;2.88;1.30;;;30.10;42.40;;;;;;4884909;28;86886;-80
2022/07/17 11:17:49;;;;;;;4.40;1.13;;;29.60;43.70;;;;;;4885325;28;87480;-80
2022/07/17 11:20:16;;;;;;;2.38;1.25;;;29.50;45.10;;;;;;4884763;28;86257;-80
2022/07/17 11:22:43;;;;;;;2.75;1.38;;;29.90;45.30;;;;;;4884002;28;87283;-80
2022/07/17 11:25:11;;;;;;;3.35;1.05;;;29.90;44.30;;;;;;4884802;28;87161;-80
2022/07/17 11:27:38;;;;;;;4.38;1.15;;;29.50;44.80;;;;;;4883562;28;88200;-80
2022/07/17 11:30:05;;;;;;;2.85;1.20;;;29.80;43.50;;;;;;4884536;28;87239;-82
2022/07/17 11:32:36;;;;;;;8.18;1.63;;;29.60;46.80;;;;;;4884417;28;87019;-80
2022/07/17 11:35:18;;;;;;;3.17;1.10;;;29.80;45.80;;;;;;4884393;28;86928;-80
2022/07/17 11:37:43;;;;;;;;;;;30.00;43.00;;;;;;4869343;28;87331;-79
2022/07/17 11:40:09;;;;;;;2.92;1.17;;;30.10;44.10;;;;;;4866907;29;87253;-80
2022/07/17 11:42:35;;;;;;;2.17;0.90;;;29.60;43.00;;;;;;4883283;28;87255;-80
2022/07/17 11:45:01;;;;;;;3.13;1.15;;;29.40;45.00;;;;;;4882734;28;86624;-80
2022/07/17 11:47:27;;;;;;;6.20;0.85;;;29.50;45.30;;;;;;4883588;28;87226;-79
2022/07/17 11:50:14;;;;;;;6.18;1.83;;;29.60;44.20;;;;;;4883355;28;86997;-80
2022/07/17 11:52:50;;;;;;;2.35;1.13;;;29.50;44.80;;;;;;4882783;28;87607;-80
2022/07/17 11:55:16;;;;;;;2.30;0.93;;;30.10;44.70;;;;;;4882320;28;87459;-79
2022/07/17 11:57:50;;;;;;;1.80;0.98;;;30.30;42.30;;;;;;4884509;28;88152;-80
2022/07/17 12:00:18;;;;;;;4.35;0.93;;;30.40;43.20;;;;;;4883417;28;87720;-80
2022/07/17 12:02:45;;;;;;;2.70;1.10;;;30.40;43.50;;;;;;4883455;28;86759;-80
2022/07/17 12:05:11;;;;;;;5.38;1.17;;;30.00;43.20;;;;;;4882342;28;86624;-80
2022/07/17 12:07:45;;;;;;;2.20;1.23;;;30.10;43.80;;;;;;4884225;28;86847;-83
2022/07/17 12:10:16;;;;;;;3.55;0.95;;;30.10;43.80;;;;;;4886195;28;88115;-80
2022/07/17 12:12:52;;;;;;;2.05;0.98;;;30.20;43.50;;;;;;4889397;28;87470;-80
2022/07/17 12:15:18;;;;;;;4.82;1.65;;;30.10;42.60;;;;;;4883410;28;86975;-80
2022/07/17 12:17:44;;;;;;;5.00;1.23;;;29.50;46.20;;;;;;4883624;28;88378;-80
2022/07/17 12:20:10;;;;;;;3.92;1.35;;;29.50;45.40;;;;;;4883186;28;89413;-81
2022/07/17 12:22:47;;;;;;;2.97;0.95;;;29.80;45.90;;;;;;4883373;28;86996;-80
2022/07/17 12:25:25;;;;;;;2.17;0.65;;;29.60;45.60;;;;;;4883982;28;87140;-80
2022/07/17 12:27:51;;;;;;;2.92;1.00;;;29.80;44.10;;;;;;4883585;28;87327;-80
2022/07/17 12:30:18;;;;;;;4.15;1.80;;;29.90;45.60;;;;;;4883603;28;89319;-80
2022/07/17 12:32:44;;;;;;;4.20;1.08;;;30.10;45.50;;;;;;4882631;28;86947;-80
2022/07/17 12:35:10;;;;;;;3.42;1.17;;;30.20;44.20;;;;;;4883943;28;86696;-81
2022/07/17 12:37:35;;;;;;;2.53;1.23;;;30.20;45.00;;;;;;4882849;28;87346;-80
2022/07/17 12:40:01;;;;;;;2.03;1.13;;;29.90;44.70;;;;;;4883417;28;87387;-81
2022/07/17 12:42:27;;;;;;;3.30;1.30;;;29.90;45.20;;;;;;4883665;28;87776;-80
2022/07/17 12:44:53;;;;;;;4.75;0.80;;;29.90;46.00;;;;;;4883477;28;87189;-80
2022/07/17 12:47:18;;;;;;;6.05;1.15;;;29.90;45.50;;;;;;4883072;28;87176;-80
2022/07/17 12:49:44;;;;;;;3.35;1.10;;;29.80;44.80;;;;;;4883125;28;87493;-81
2022/07/17 12:52:10;;;;;;;3.25;1.52;;;29.70;45.90;;;;;;4882900;28;87236;-82
2022/07/17 12:54:36;;;;;;;4.38;0.93;;;29.60;46.00;;;;;;4882774;28;87044;-80
2022/07/17 12:57:01;;;;;;;3.65;1.05;;;29.30;48.40;;;;;;4882799;28;87167;-82
2022/07/17 12:59:27;;;;;;;4.25;1.08;;;29.40;46.60;;;;;;4883337;28;86308;-81
2022/07/17 13:01:54;;;;;;;3.58;1.20;;;29.50;45.30;;;;;;4882834;28;86953;-80
2022/07/17 13:04:20;;;;;;;4.47;1.10;;;29.40;45.30;;;;;;4883372;28;87075;-80
2022/07/17 13:06:46;;;;;;;2.50;1.23;;;29.70;45.00;;;;;;4883004;28;89325;-80
2022/07/17 13:09:12;;;;;;;3.53;0.93;;;30.00;45.40;;;;;;4883297;28;87247;-82
2022/07/17 13:11:44;;;;;;;2.28;0.93;;;29.80;44.20;;;;;;4896150;28;87076;-80
2022/07/17 13:14:13;;;;;;;2.60;1.15;;;30.00;43.30;;;;;;4883755;28;87263;-80
2022/07/17 13:16:39;;;;;;;2.97;1.00;;;30.10;43.30;;;;;;4882541;28;87146;-80
2022/07/17 13:19:05;;;;;;;3.03;1.20;;;29.90;41.20;;;;;;4882481;28;87373;-80
2022/07/17 13:21:31;;;;;;;2.72;1.00;;;29.80;45.00;;;;;;4883264;28;86870;-80
2022/07/17 13:23:58;;;;;;;3.55;1.00;;;29.90;45.10;;;;;;4883757;28;86780;-80
2022/07/17 13:26:24;;;;;;;4.72;0.98;;;30.00;45.20;;;;;;4882995;28;87514;-80
2022/07/17 13:28:49;;;;;;;1.95;1.08;;;30.10;43.60;;;;;;4882608;28;86854;-80
2022/07/17 13:31:15;;;;;;;1.98;1.08;;;30.10;42.80;;;;;;4882238;28;87948;-80
2022/07/17 13:33:41;;;;;;;2.22;0.90;;;30.10;42.80;;;;;;4883006;28;86875;-80
2022/07/17 13:36:07;;;;;;;3.67;1.90;;;30.00;43.30;;;;;;4882419;28;88347;-80
2022/07/17 13:38:32;;;;;;;3.40;1.42;;;29.90;43.00;;;;;;4881954;28;87360;-80
2022/07/17 13:40:58;;;;;;;4.03;1.40;;;29.90;43.20;;;;;;4883182;28;86933;-80
2022/07/17 13:43:24;;;;;;;3.30;1.10;;;30.00;43.60;;;;;;4882269;28;87416;-82
2022/07/17 13:45:50;;;;;;;2.10;0.88;;;30.00;43.00;;;;;;4882740;28;87004;-80
2022/07/17 13:48:15;;;;;;;5.80;0.95;;;29.60;43.10;;;;;;4882464;28;88070;-81
2022/07/17 13:50:42;;;;;;;2.42;0.93;;;29.70;43.30;;;;;;4883335;28;87283;-80
2022/07/17 13:53:08;;;;;;;5.18;1.45;;;29.80;41.80;;;;;;4883329;28;86997;-80
2022/07/17 13:55:34;;;;;;;3.53;1.15;;;29.80;43.50;;;;;;4881560;28;88103;-80
2022/07/17 13:57:59;;;;;;;5.55;1.13;;;29.60;43.60;;;;;;4882181;28;87745;-81
2022/07/17 14:00:25;;;;;;;3.55;0.90;;;29.80;42.50;;;;;;4882261;28;87545;-80
2022/07/17 14:02:51;;;;;;;3.42;1.45;;;29.80;42.90;;;;;;4881496;28;86877;-80
2022/07/17 14:05:17;;;;;;;2.50;1.30;;;29.70;45.10;;;;;;4882765;28;87265;-80
2022/07/17 14:07:43;;;;;;;3.97;1.10;;;29.60;42.40;;;;;;4885682;28;86990;-81
2022/07/17 14:10:09;;;;;;;4.00;0.85;;;29.70;42.30;;;;;;4888566;28;87012;-80
2022/07/17 14:12:36;;;;;;;2.63;1.00;;;29.80;43.70;;;;;;4895806;28;86657;-81
2022/07/17 14:15:03;;;;;;;5.07;1.65;;;29.90;42.30;;;;;;4885357;28;87650;-80
2022/07/17 14:17:29;;;;;;;1.77;0.98;;;30.00;42.10;;;;;;4885785;28;87514;-80
2022/07/17 14:19:55;;;;;;;3.22;1.13;;;29.60;43.20;;;;;;4885625;28;87863;-80
2022/07/17 14:22:20;;;;;;;4.40;1.00;;;29.70;42.50;;;;;;4885438;28;86865;-80
2022/07/17 14:24:46;;;;;;;3.42;0.95;;;29.60;42.50;;;;;;4885651;28;88201;-80
2022/07/17 14:27:12;;;;;;;1.83;1.08;;;29.50;42.60;;;;;;4885160;28;86976;-80
2022/07/17 14:29:38;;;;;;;1.75;0.80;;;29.50;43.20;;;;;;4885482;28;87049;-83
2022/07/17 14:32:04;;;;;;;1.63;0.90;;;29.60;42.30;;;;;;4885223;28;87020;-80
2022/07/17 14:34:30;;;;;;;2.88;0.98;;;29.60;41.70;;;;;;4884884;28;86961;-80
2022/07/17 14:36:55;;;;;;;3.20;0.90;;;29.50;42.10;;;;;;4885555;28;86785;-80
2022/07/17 14:39:21;;;;;;;3.78;0.63;;;29.60;42.40;;;;;;4885652;28;86957;-80
2022/07/17 14:41:47;;;;;;;2.22;0.98;;;29.50;42.20;;;;;;4883912;28;87267;-80
2022/07/17 14:44:13;;;;;;;3.78;1.08;;;29.40;41.80;;;;;;4884930;28;88189;-80
2022/07/17 14:46:39;;;;;;;5.97;1.02;;;29.50;42.60;;;;;;4884244;28;87481;-81
2022/07/17 14:49:05;;;;;;;1.50;0.80;;;29.50;42.70;;;;;;4883783;28;87025;-81
2022/07/17 14:51:31;;;;;;;2.63;1.08;;;29.60;42.70;;;;;;4884530;28;87211;-81
2022/07/17 14:53:57;;;;;;;4.78;1.23;;;29.40;41.60;;;;;;4884507;28;88109;-81
2022/07/17 14:56:23;;;;;;;2.75;1.30;;;29.40;42.20;;;;;;4884553;28;87143;-81
2022/07/17 14:58:48;;;;;;;2.28;1.17;;;29.50;41.90;;;;;;4880951;28;87507;-82
2022/07/17 15:01:14;;;;;;;2.42;0.80;;;29.50;42.90;;;;;;4883566;28;86526;-80
2022/07/17 15:03:40;;;;;;;2.50;1.30;;;29.60;42.00;;;;;;4883815;28;87930;-80
2022/07/17 15:06:06;;;;;;;1.77;0.80;;;29.70;42.20;;;;;;4884760;28;88093;-80
2022/07/17 15:08:32;;;;;;;2.20;0.82;;;29.70;41.10;;;;;;4884534;28;87921;-81
2022/07/17 15:10:58;;;;;;;3.65;0.75;;;29.60;42.20;;;;;;4872253;28;87181;-80
2022/07/17 15:13:24;;;;;;;2.47;1.10;;;29.60;41.20;;;;;;4865206;29;87403;-80
2022/07/17 15:15:50;;;;;;;2.38;0.90;;;29.50;42.00;;;;;;4881181;28;86949;-80
2022/07/17 15:18:15;;;;;;;3.60;0.70;;;29.40;42.40;;;;;;4883674;28;87238;-80
2022/07/17 15:20:41;;;;;;;4.70;1.30;;;29.60;40.90;;;;;;4882384;28;86786;-81
2022/07/17 15:23:07;;;;;;;2.60;1.08;;;29.50;41.30;;;;;;4883925;28;88169;-80
2022/07/17 15:25:33;;;;;;;3.85;1.00;;;29.60;41.00;;;;;;4872866;28;86933;-83
2022/07/17 15:27:58;;;;;;;4.43;0.80;;;29.40;41.20;;;;;;4875974;28;87160;-80
2022/07/17 15:30:24;;;;;;;1.58;0.82;;;29.40;41.00;;;;;;4884419;28;87256;-81
2022/07/17 15:32:50;;;;;;;1.33;0.88;;;29.40;41.60;;;;;;4882486;28;88823;-80
2022/07/17 15:35:16;;;;;;;2.55;0.90;;;29.50;41.10;;;;;;4883874;28;88764;-80
2022/07/17 15:37:41;;;;;;;2.15;1.10;;;29.40;41.10;;;;;;4884176;28;87394;-80
2022/07/17 15:40:08;;;;;;;1.83;0.77;;;29.50;42.20;;;;;;4883441;28;87373;-81
2022/07/17 15:42:33;;;;;;;1.90;0.93;;;29.20;40.30;;;;;;4883742;28;86982;-80
2022/07/17 15:44:59;;;;;;;3.35;0.98;;;29.10;41.50;;;;;;4883508;28;87388;-80
2022/07/17 15:47:25;;;;;;;2.75;1.00;;;29.20;41.10;;;;;;4879941;28;87134;-80
2022/07/17 15:49:51;;;;;;;3.50;1.10;;;29.30;40.90;;;;;;4884147;28;86167;-80
2022/07/17 15:52:16;;;;;;;2.50;1.00;;;29.30;42.00;;;;;;4883010;28;86962;-79
2022/07/17 15:54:42;;;;;;;7.10;0.93;;;29.20;41.60;;;;;;4883219;28;89760;-80
2022/07/17 15:57:08;;;;;;;4.40;1.50;;;29.20;41.20;;;;;;4881724;28;89589;-80
2022/07/17 15:59:33;;;;;;;1.88;1.13;;;29.30;41.90;;;;;;4882924;28;87041;-81
2022/07/17 16:01:59;;;;;;;3.72;1.00;;;29.30;40.80;;;;;;4875773;28;88211;-80
2022/07/17 16:04:25;;;;;;;2.25;1.20;;;29.20;41.80;;;;;;4882667;28;87047;-80
2022/07/17 16:06:51;;;;;;;2.75;0.85;;;29.30;41.00;;;;;;4883712;28;87008;-81
2022/07/17 16:09:18;;;;;;;5.13;0.82;;;29.40;41.30;;;;;;4883692;28;87105;-80
2022/07/17 16:11:44;;;;;;;2.55;1.02;;;29.50;40.80;;;;;;4898462;28;88568;-80
2022/07/17 16:14:09;;;;;;;3.80;1.05;;;29.50;41.20;;;;;;4883263;28;87355;-80
2022/07/17 16:16:35;;;;;;;2.25;0.90;;;29.50;41.70;;;;;;4883602;28;86941;-81
2022/07/17 16:19:01;;;;;;;4.45;1.33;;;29.40;40.30;;;;;;4886191;28;86872;-79
2022/07/17 16:21:27;;;;;;;4.93;1.15;;;29.20;40.50;;;;;;4884413;28;88117;-80
2022/07/17 16:23:53;;;;;;;2.53;1.23;;;28.80;40.90;;;;;;4882233;28;87837;-79
2022/07/17 16:26:19;;;;;;;2.80;0.90;;;28.70;41.40;;;;;;4885425;28;86901;-80
2022/07/17 16:28:45;;;;;;;2.30;0.80;;;28.70;42.00;;;;;;4882653;28;87615;-80
2022/07/17 16:31:12;;;;;;;2.05;1.02;;;28.90;40.80;;;;;;4882479;28;88660;-80
2022/07/17 16:33:37;;;;;;;2.88;0.82;;;29.00;40.90;;;;;;4883347;28;87399;-80
2022/07/17 16:36:04;;;;;;;2.05;0.77;;;29.00;41.20;;;;;;4883905;28;87293;-80
2022/07/17 16:38:29;;;;;;;3.88;0.95;;;28.90;41.80;;;;;;4881118;28;86232;-80
2022/07/17 16:40:55;;;;;;;3.10;0.80;;;29.00;40.60;;;;;;4882829;28;87267;-80
2022/07/17 16:43:21;;;;;;;3.60;1.10;;;29.00;40.10;;;;;;4873302;28;87733;-80
2022/07/17 16:45:47;;;;;;;3.25;0.73;;;28.90;40.60;;;;;;4867702;28;88029;-81
2022/07/17 16:48:13;;;;;;;2.33;1.00;;;28.90;39.90;;;;;;4878287;28;87385;-81